createdAt,value
2019-05-23T00:01:49.739Z,5.75
2019-05-23T00:04:39.684Z,4.58
2019-05-23T00:07:29.089Z,5.72
2019-05-23T00:10:21.984Z,7.30
2019-05-23T00:12:56.149Z,6.83
2019-05-23T00:15:35.297Z,6.78
2019-05-23T00:18:06.726Z,6.87
2019-05-23T00:20:37.438Z,6.80
2019-05-23T00:23:08.813Z,6.42
2019-05-23T00:25:40.656Z,8.18
2019-05-23T00:28:11.690Z,6.22
2019-05-23T00:30:44.540Z,6.67
2019-05-23T00:33:17.257Z,6.67
2019-05-23T00:35:47.957Z,7.70
2019-05-23T00:38:19.714Z,8.18
2019-05-23T00:40:52.859Z,7.22
2019-05-23T00:43:24.673Z,9.73
2019-05-23T00:45:55.186Z,9.13
2019-05-23T00:48:25.752Z,9.05
2019-05-23T00:50:57.238Z,7.47
2019-05-23T00:53:28.390Z,8.28
2019-05-23T00:56:01.588Z,6.60
2019-05-23T00:58:33.005Z,6.28
2019-05-23T01:01:04.669Z,7.58
2019-05-23T01:03:35.830Z,10.72
2019-05-23T01:06:07.105Z,7.80
2019-05-23T01:08:38.204Z,8.45
2019-05-23T01:11:09.437Z,6.60
2019-05-23T01:13:39.988Z,7.95
2019-05-23T01:16:11.995Z,10.90
2019-05-23T01:18:42.752Z,6.92
2019-05-23T01:21:18.393Z,9.75
2019-05-23T01:23:50.217Z,9.45
2019-05-23T01:26:22.824Z,9.45
2019-05-23T01:28:53.589Z,10.20
2019-05-23T01:31:38.056Z,8.95
2019-05-23T01:34:09.887Z,9.70
2019-05-23T01:36:40.516Z,8.40
2019-05-23T01:39:12.345Z,11.25
2019-05-23T01:41:43.384Z,9.45
2019-05-23T01:44:14.154Z,13.75
2019-05-23T01:46:45.249Z,11.30
2019-05-23T01:49:16.185Z,12.63
2019-05-23T01:51:46.536Z,14.15
2019-05-23T01:54:16.807Z,12.85
2019-05-23T01:56:48.138Z,10.45
2019-05-23T01:59:18.611Z,13.00
2019-05-23T02:01:49.441Z,13.90
2019-05-23T02:04:19.934Z,15.70
2019-05-23T02:06:51.156Z,16.82
2019-05-23T02:09:21.441Z,13.80
2019-05-23T02:11:51.690Z,11.80
2019-05-23T02:14:22.198Z,12.60
2019-05-23T02:16:52.567Z,13.08
2019-05-23T02:19:23.559Z,14.18
2019-05-23T02:21:53.812Z,15.60
2019-05-23T02:24:25.929Z,20.55
2019-05-23T02:26:56.958Z,13.53
2019-05-23T02:29:29.574Z,13.48
2019-05-23T02:32:00.689Z,13.08
2019-05-23T02:34:31.597Z,12.65
2019-05-23T02:37:03.651Z,11.95
2019-05-23T02:39:35.693Z,14.30
2019-05-23T02:42:16.839Z,12.50
2019-05-23T02:44:48.095Z,17.77
2019-05-23T02:47:24.950Z,14.10
2019-05-23T02:49:56.902Z,16.48
2019-05-23T02:52:31.678Z,14.05
2019-05-23T02:55:02.437Z,12.20
2019-05-23T02:57:33.955Z,14.70
2019-05-23T03:00:07.422Z,15.18
2019-05-23T03:02:45.234Z,12.37
2019-05-23T03:05:18.095Z,13.55
2019-05-23T03:07:48.370Z,15.50
2019-05-23T03:10:20.331Z,15.80
2019-05-23T03:12:52.955Z,18.70
2019-05-23T03:15:25.286Z,15.13
2019-05-23T03:17:56.924Z,16.20
2019-05-23T03:20:27.210Z,12.05
2019-05-23T03:23:09.897Z,15.75
2019-05-23T03:25:43.217Z,13.75
2019-05-23T03:28:15.694Z,14.78
2019-05-23T03:30:47.628Z,14.20
2019-05-23T03:33:19.147Z,12.68
2019-05-23T03:35:54.128Z,11.60
2019-05-23T03:38:24.403Z,13.10
2019-05-23T03:40:55.287Z,14.10
2019-05-23T03:43:26.814Z,11.30
2019-05-23T03:46:16.141Z,19.45
2019-05-23T03:48:47.742Z,14.83
2019-05-23T03:51:19.605Z,14.30
2019-05-23T03:53:52.027Z,17.02
2019-05-23T03:56:23.337Z,11.90
2019-05-23T03:58:56.533Z,13.93
2019-05-23T04:01:46.277Z,11.68
2019-05-23T04:04:02.979Z,15.10
2019-05-23T04:06:34.195Z,14.25
2019-05-23T04:09:08.166Z,10.63
2019-05-23T04:11:38.599Z,10.68
2019-05-23T04:14:10.740Z,10.28
2019-05-23T04:16:41.598Z,10.93
2019-05-23T04:19:11.900Z,11.33
2019-05-23T04:21:48.643Z,11.57
2019-05-23T04:24:20.158Z,10.78
2019-05-23T04:26:50.431Z,14.07
2019-05-23T04:29:22.505Z,11.83
2019-05-23T04:32:07.077Z,12.30
2019-05-23T04:34:25.588Z,16.02
2019-05-23T04:36:56.156Z,12.65
2019-05-23T04:39:27.241Z,11.90
2019-05-23T04:41:58.615Z,12.35
2019-05-23T04:44:29.416Z,11.12
2019-05-23T04:47:00.087Z,12.00
2019-05-23T04:49:30.425Z,10.03
2019-05-23T04:52:00.627Z,9.98
2019-05-23T04:54:36.414Z,10.43
2019-05-23T04:57:08.313Z,8.65
2019-05-23T04:59:40.506Z,7.67
2019-05-23T05:02:25.711Z,9.15
2019-05-23T05:04:46.006Z,7.65
2019-05-23T05:07:16.443Z,9.98
2019-05-23T05:09:47.907Z,8.70
2019-05-23T05:12:34.909Z,10.68
2019-05-23T05:15:02.753Z,12.07
2019-05-23T05:17:35.921Z,14.18
2019-05-23T05:20:09.129Z,14.58
2019-05-23T05:22:39.755Z,15.45
2019-05-23T05:25:17.580Z,11.50
2019-05-23T05:27:47.879Z,11.70
2019-05-23T05:30:24.630Z,13.13
2019-05-23T05:32:56.072Z,10.78
2019-05-23T05:35:33.613Z,13.65
2019-05-23T05:38:04.124Z,11.10
2019-05-23T05:40:35.468Z,13.03
2019-05-23T05:43:07.638Z,15.20
2019-05-23T05:45:40.712Z,27.13
2019-05-23T05:48:11.096Z,19.30
2019-05-23T05:50:41.760Z,18.10
2019-05-23T05:53:14.129Z,16.20
2019-05-23T05:55:47.235Z,17.45
2019-05-23T05:58:17.525Z,21.07
2019-05-23T06:00:52.526Z,20.97
2019-05-23T06:03:23.330Z,23.80
2019-05-23T06:06:11.669Z,21.90
2019-05-23T06:08:46.402Z,24.92
2019-05-23T06:11:17.058Z,20.20
2019-05-23T06:13:48.859Z,18.95
2019-05-23T06:16:21.247Z,18.65
2019-05-23T06:18:54.336Z,23.47
2019-05-23T06:21:26.253Z,19.55
2019-05-23T06:23:56.562Z,21.65
2019-05-23T06:26:28.886Z,24.98
2019-05-23T06:28:59.441Z,22.58
2019-05-23T06:31:29.983Z,23.32
2019-05-23T06:34:00.536Z,26.20
2019-05-23T06:36:31.930Z,17.23
2019-05-23T06:39:10.134Z,20.50
2019-05-23T06:41:44.851Z,16.35
2019-05-23T06:44:16.123Z,17.40
2019-05-23T06:46:57.612Z,20.48
2019-05-23T06:49:29.795Z,20.88
2019-05-23T06:52:00.631Z,19.73
2019-05-23T06:54:30.925Z,19.85
2019-05-23T06:57:01.370Z,16.00
2019-05-23T06:59:32.091Z,18.62
2019-05-23T07:02:03.056Z,17.07
2019-05-23T07:04:34.567Z,17.45
2019-05-23T07:07:05.318Z,20.43
2019-05-23T07:09:40.693Z,16.40
2019-05-23T07:12:11.525Z,19.73
2019-05-23T07:14:48.027Z,14.68
2019-05-23T07:17:19.744Z,19.07
2019-05-23T07:19:50.150Z,17.05
2019-05-23T07:22:20.990Z,14.80
2019-05-23T07:24:58.289Z,12.58
2019-05-23T07:27:24.741Z,12.60
2019-05-23T07:29:55.238Z,13.22
2019-05-23T07:32:25.416Z,10.98
2019-05-23T07:34:55.777Z,16.12
2019-05-23T07:37:26.614Z,14.80
2019-05-23T07:40:00.025Z,14.23
2019-05-23T07:42:30.399Z,13.50
2019-05-23T07:45:04.801Z,14.45
2019-05-23T07:47:35.311Z,13.43
2019-05-23T07:50:06.529Z,15.03
2019-05-23T07:52:48.378Z,15.68
2019-05-23T07:55:19.523Z,13.90
2019-05-23T07:58:00.977Z,14.85
2019-05-23T08:00:32.831Z,11.97
2019-05-23T08:03:05.411Z,14.70
2019-05-23T08:05:36.423Z,13.00
2019-05-23T08:08:08.303Z,13.00
2019-05-23T08:10:38.723Z,13.72
2019-05-23T08:13:09.335Z,12.82
2019-05-23T08:15:41.626Z,20.43
2019-05-23T08:18:12.444Z,13.60
2019-05-23T08:20:43.305Z,13.95
2019-05-23T08:23:14.418Z,9.90
2019-05-23T08:25:44.980Z,11.10
2019-05-23T08:28:16.254Z,12.18
2019-05-23T08:30:46.671Z,14.43
2019-05-23T08:33:17.536Z,11.65
2019-05-23T08:35:47.716Z,15.05
2019-05-23T08:38:18.715Z,21.35
2019-05-23T08:40:49.927Z,13.15
2019-05-23T08:43:20.345Z,11.30
2019-05-23T08:45:50.563Z,9.33
2019-05-23T08:48:20.914Z,10.88
2019-05-23T08:50:54.648Z,17.20
2019-05-23T08:53:26.815Z,11.25
2019-05-23T08:55:58.812Z,9.98
2019-05-23T08:58:29.984Z,10.72
2019-05-23T09:01:00.252Z,18.98
2019-05-23T09:03:31.910Z,13.98
2019-05-23T09:06:02.437Z,10.58
2019-05-23T09:08:38.852Z,7.55
2019-05-23T09:11:09.454Z,9.68
2019-05-23T09:13:40.815Z,12.73
2019-05-23T09:16:13.677Z,10.68
2019-05-23T09:18:44.202Z,15.63
2019-05-23T09:21:15.054Z,10.75
2019-05-23T09:23:45.287Z,14.90
2019-05-23T09:26:17.025Z,11.75
2019-05-23T09:28:47.429Z,13.72
2019-05-23T09:31:19.069Z,15.55
2019-05-23T09:33:49.308Z,9.65
2019-05-23T09:36:20.051Z,10.70
2019-05-23T09:38:52.977Z,14.95
2019-05-23T09:41:23.366Z,18.82
2019-05-23T09:43:53.715Z,19.05
2019-05-23T09:46:24.097Z,14.05
2019-05-23T09:48:54.496Z,14.87
2019-05-23T09:51:30.182Z,20.10
2019-05-23T09:54:00.672Z,20.90
2019-05-23T09:56:31.528Z,16.52
2019-05-23T09:59:02.186Z,17.05
2019-05-23T10:01:32.569Z,18.52
2019-05-23T10:04:03.467Z,20.85
2019-05-23T10:06:33.774Z,20.27
2019-05-23T10:09:05.693Z,17.12
2019-05-23T10:11:36.099Z,21.50
2019-05-23T10:14:08.052Z,18.35
2019-05-23T10:16:39.537Z,17.60
2019-05-23T10:19:09.841Z,16.67
2019-05-23T10:21:40.245Z,17.00
2019-05-23T10:24:11.409Z,21.62
2019-05-23T10:26:41.740Z,18.45
2019-05-23T10:29:12.255Z,12.85
2019-05-23T10:31:42.899Z,16.45
2019-05-23T10:34:13.274Z,15.88
2019-05-23T10:36:46.866Z,13.85
2019-05-23T10:39:22.182Z,14.65
2019-05-23T10:41:52.458Z,16.70
2019-05-23T10:44:22.788Z,17.02
2019-05-23T10:47:00.925Z,17.70
2019-05-23T10:49:31.196Z,14.90
2019-05-23T10:52:01.493Z,13.32
2019-05-23T10:54:34.815Z,15.50
2019-05-23T10:57:05.228Z,12.28
2019-05-23T10:59:44.858Z,19.87
2019-05-23T11:02:16.538Z,13.08
2019-05-23T11:04:47.148Z,16.97
2019-05-23T11:07:22.798Z,16.95
2019-05-23T11:09:57.058Z,13.28
2019-05-23T11:12:27.533Z,17.35
2019-05-23T11:14:57.836Z,12.53
2019-05-23T11:17:28.025Z,15.03
2019-05-23T11:19:58.424Z,19.12
2019-05-23T11:22:28.897Z,14.07
2019-05-23T11:25:00.756Z,13.28
2019-05-23T11:27:31.568Z,13.50
2019-05-23T11:30:02.400Z,17.37
2019-05-23T11:32:43.985Z,12.63
2019-05-23T11:35:14.530Z,17.32
2019-05-23T11:37:44.884Z,12.85
2019-05-23T11:40:15.184Z,10.93
2019-05-23T11:42:45.412Z,10.13
2019-05-23T11:45:15.680Z,19.37
2019-05-23T11:47:46.489Z,26.48
2019-05-23T11:50:16.904Z,10.72
2019-05-23T11:52:47.469Z,10.63
2019-05-23T11:55:18.164Z,16.93
2019-05-23T11:57:48.582Z,11.83
2019-05-23T12:00:23.457Z,8.13
2019-05-23T12:02:54.005Z,10.38
2019-05-23T12:05:26.016Z,11.97
2019-05-23T12:07:56.392Z,13.55
2019-05-23T12:10:27.136Z,9.98
2019-05-23T12:12:57.488Z,8.45
2019-05-23T12:15:30.178Z,11.08
2019-05-23T12:18:00.473Z,14.77
2019-05-23T12:20:31.430Z,13.32
2019-05-23T12:23:01.914Z,10.10
2019-05-23T12:25:33.256Z,9.65
2019-05-23T12:28:05.088Z,9.78
2019-05-23T12:30:35.575Z,20.25
2019-05-23T12:33:05.827Z,10.20
2019-05-23T12:35:36.105Z,12.05
2019-05-23T12:38:06.686Z,13.38
2019-05-23T12:40:50.599Z,14.20
2019-05-23T12:43:20.793Z,10.23
2019-05-23T12:45:51.293Z,10.13
2019-05-23T12:48:28.368Z,10.10
2019-05-23T12:51:16.676Z,9.78
2019-05-23T12:53:47.437Z,9.50
2019-05-23T12:56:17.834Z,8.73
2019-05-23T12:58:49.661Z,8.40
2019-05-23T13:01:20.314Z,8.23
2019-05-23T13:03:53.363Z,12.23
2019-05-23T13:06:23.869Z,8.63
2019-05-23T13:08:54.346Z,14.60
2019-05-23T13:11:28.612Z,10.28
2019-05-23T13:13:58.973Z,8.90
2019-05-23T13:16:29.264Z,7.72
2019-05-23T13:18:59.514Z,9.55
2019-05-23T13:21:29.804Z,8.70
2019-05-23T13:24:09.157Z,8.78
2019-05-23T13:26:39.901Z,10.23
2019-05-23T13:29:10.363Z,13.50
2019-05-23T13:31:40.872Z,7.92
2019-05-23T13:34:11.129Z,17.27
2019-05-23T13:36:41.996Z,5.62
2019-05-23T13:39:12.553Z,10.65
2019-05-23T13:41:54.079Z,9.43
2019-05-23T13:44:33.640Z,16.02
2019-05-23T13:46:56.600Z,11.75
2019-05-23T13:49:33.496Z,9.65
2019-05-23T13:52:05.097Z,12.13
2019-05-23T13:54:36.477Z,11.88
2019-05-23T13:57:08.982Z,8.50
2019-05-23T13:59:39.723Z,10.10
2019-05-23T14:02:17.350Z,11.97
2019-05-23T14:04:44.831Z,8.58
2019-05-23T14:07:16.485Z,9.20
2019-05-23T14:09:56.108Z,10.38
2019-05-23T14:12:27.700Z,9.10
2019-05-23T14:14:57.975Z,6.40
2019-05-23T14:17:29.960Z,10.90
2019-05-23T14:20:04.687Z,14.95
2019-05-23T14:22:37.060Z,9.50
2019-05-23T14:25:12.205Z,5.37
2019-05-23T14:27:56.938Z,8.93
2019-05-23T14:30:30.332Z,8.35
2019-05-23T14:33:02.222Z,9.08
2019-05-23T14:35:36.668Z,6.97
2019-05-23T14:38:29.225Z,20.02
2019-05-23T14:40:50.055Z,9.20
2019-05-23T14:43:22.255Z,10.82
2019-05-23T14:46:03.071Z,9.60
2019-05-23T14:48:59.699Z,7.85
2019-05-23T14:51:48.609Z,11.60
2019-05-23T14:54:26.479Z,8.08
2019-05-23T14:56:56.979Z,4.33
2019-05-23T14:59:34.028Z,4.62
2019-05-23T15:02:18.038Z,8.28
2019-05-23T15:04:52.389Z,8.78
2019-05-23T15:07:22.711Z,14.65
2019-05-23T15:10:02.376Z,9.03
2019-05-23T15:12:33.681Z,7.40
2019-05-23T15:15:05.502Z,5.75
2019-05-23T15:17:35.777Z,2.72
2019-05-23T15:20:08.431Z,5.70
2019-05-23T15:22:39.142Z,4.60
2019-05-23T15:25:10.429Z,9.88
2019-05-23T15:27:55.509Z,6.87
2019-05-23T15:30:25.767Z,7.62
2019-05-23T15:32:56.102Z,10.60
2019-05-23T15:35:28.127Z,5.20
2019-05-23T15:37:58.665Z,8.30
2019-05-23T15:40:29.154Z,6.25
2019-05-23T15:43:04.374Z,5.65
2019-05-23T15:45:34.772Z,8.58
2019-05-23T15:48:05.611Z,6.47
2019-05-23T15:50:43.669Z,10.05
2019-05-23T15:53:22.699Z,6.62
2019-05-23T15:55:58.020Z,3.00
2019-05-23T15:58:32.582Z,8.55
2019-05-23T16:01:13.598Z,6.72
2019-05-23T16:04:03.834Z,4.70
2019-05-23T16:06:36.541Z,10.38
2019-05-23T16:09:27.857Z,7.30
2019-05-23T16:11:43.821Z,4.25
2019-05-23T16:14:14.581Z,13.03
2019-05-23T16:16:45.462Z,9.23
2019-05-23T16:19:16.032Z,8.60
2019-05-23T16:21:46.634Z,8.13
2019-05-23T16:24:16.890Z,3.80
2019-05-23T16:26:48.017Z,5.40
2019-05-23T16:29:19.848Z,15.25
2019-05-23T16:31:53.907Z,17.23
2019-05-23T16:34:24.290Z,7.70
2019-05-23T16:36:54.745Z,9.30
2019-05-23T16:39:25.333Z,5.15
2019-05-23T16:41:56.022Z,4.95
2019-05-23T16:44:26.292Z,5.40
2019-05-23T16:46:56.713Z,6.97
2019-05-23T16:49:45.089Z,7.20
2019-05-23T16:52:15.581Z,10.63
2019-05-23T16:54:47.611Z,4.87
2019-05-23T16:57:20.854Z,6.03
2019-05-23T17:00:16.165Z,14.13
2019-05-23T17:03:11.288Z,13.13
2019-05-23T17:05:46.474Z,8.03
2019-05-23T17:08:28.885Z,5.62
2019-05-23T17:17:56.731Z,7.87
2019-05-23T17:20:19.694Z,10.18
2019-05-23T17:22:52.896Z,12.10
2019-05-23T17:25:56.601Z,16.50
2019-05-23T17:28:40.912Z,6.40
2019-05-23T17:31:15.482Z,5.83
2019-05-23T17:33:45.783Z,7.30
2019-05-23T17:36:16.476Z,10.40
2019-05-23T17:38:46.738Z,4.85
2019-05-23T17:41:17.631Z,8.40
2019-05-23T17:43:47.882Z,7.22
2019-05-23T17:46:18.185Z,10.50
2019-05-23T17:48:48.429Z,14.05
2019-05-23T17:51:18.971Z,19.32
2019-05-23T17:53:49.941Z,10.55
2019-05-23T17:56:20.281Z,9.35
2019-05-23T17:58:50.911Z,12.45
2019-05-23T18:01:40.683Z,10.95
2019-05-23T18:04:11.312Z,10.93
2019-05-23T18:06:42.121Z,7.20
2019-05-23T18:09:12.597Z,9.90
2019-05-23T18:11:43.115Z,10.80
2019-05-23T18:14:13.851Z,8.65
2019-05-23T18:16:44.562Z,5.45
2019-05-23T18:19:14.885Z,12.53
2019-05-23T18:21:45.301Z,7.78
2019-05-23T18:24:17.359Z,4.40
2019-05-23T18:26:47.664Z,8.38
2019-05-23T18:29:18.342Z,6.22
2019-05-23T18:31:50.259Z,6.65
2019-05-23T18:34:20.436Z,8.65
2019-05-23T18:36:52.600Z,9.98
2019-05-23T18:39:24.752Z,6.72
2019-05-23T18:41:55.118Z,7.62
2019-05-23T18:44:26.992Z,10.32
2019-05-23T18:47:07.641Z,4.45
2019-05-23T18:49:41.852Z,8.33
2019-05-23T18:52:12.259Z,11.25
2019-05-23T18:54:49.613Z,9.90
2019-05-23T18:57:31.414Z,9.18
2019-05-23T19:00:03.809Z,6.25
2019-05-23T19:02:45.464Z,9.10
2019-05-23T19:05:17.223Z,8.73
2019-05-23T19:07:49.103Z,8.15
2019-05-23T19:10:19.372Z,6.97
2019-05-23T19:12:49.961Z,7.78
2019-05-23T19:15:20.268Z,9.60
2019-05-23T19:17:50.554Z,7.55
2019-05-23T19:20:21.229Z,10.18
2019-05-23T19:22:51.554Z,15.75
2019-05-23T19:25:22.637Z,10.40
2019-05-23T19:27:53.240Z,10.20
2019-05-23T19:30:35.597Z,16.75
2019-05-23T19:33:07.506Z,22.07
2019-05-23T19:35:47.534Z,17.10
2019-05-23T19:38:17.408Z,14.65
2019-05-23T19:40:48.201Z,13.35
2019-05-23T19:43:19.764Z,17.57
2019-05-23T19:45:52.613Z,14.38
2019-05-23T19:48:23.754Z,16.23
2019-05-23T19:50:55.811Z,17.65
2019-05-23T19:53:27.709Z,18.45
2019-05-23T19:55:58.408Z,18.92
2019-05-23T19:58:28.702Z,20.50
2019-05-23T20:00:58.969Z,19.67
2019-05-23T20:03:32.636Z,16.02
2019-05-23T20:06:01.613Z,19.25
2019-05-23T20:08:33.476Z,16.25
2019-05-23T20:11:04.364Z,20.65
2019-05-23T20:13:34.704Z,15.48
2019-05-23T20:16:05.435Z,18.42
2019-05-23T20:18:36.293Z,15.03
2019-05-23T20:21:07.125Z,13.43
2019-05-23T20:23:37.456Z,12.85
2019-05-23T20:26:08.720Z,17.05
2019-05-23T20:28:40.351Z,15.45
2019-05-23T20:31:11.066Z,11.80
2019-05-23T20:33:41.356Z,14.33
2019-05-23T20:36:13.116Z,13.10
2019-05-23T20:38:46.630Z,12.03
2019-05-23T20:41:29.372Z,20.25
2019-05-23T20:43:55.851Z,17.00
2019-05-23T20:46:26.167Z,15.68
2019-05-23T20:49:02.800Z,19.17
2019-05-23T20:51:39.404Z,12.78
2019-05-23T20:54:09.680Z,16.20
2019-05-23T20:56:39.981Z,15.98
2019-05-23T20:59:10.353Z,12.82
2019-05-23T21:01:41.992Z,13.15
2019-05-23T21:04:12.268Z,11.65
2019-05-23T21:09:55.621Z,11.12
2019-05-23T21:12:29.915Z,11.30
2019-05-23T21:14:58.810Z,10.40
2019-05-23T21:17:29.095Z,13.90
2019-05-23T21:19:59.300Z,12.60
2019-05-23T21:22:29.740Z,12.58
2019-05-23T21:24:59.987Z,12.98
2019-05-23T21:27:30.352Z,14.18
2019-05-23T21:30:01.376Z,13.68
2019-05-23T21:32:33.180Z,13.48
2019-05-23T21:35:03.632Z,15.13
2019-05-23T21:37:33.908Z,12.45
2019-05-23T21:40:06.726Z,14.60
2019-05-23T21:42:47.108Z,17.37
2019-05-23T21:45:09.405Z,11.30
2019-05-23T21:47:39.783Z,11.65
2019-05-23T21:50:10.333Z,15.38
2019-05-23T21:52:40.675Z,12.82
2019-05-23T21:55:13.879Z,16.32
2019-05-23T21:57:44.605Z,12.25
2019-05-23T22:00:19.371Z,10.90
2019-05-23T22:02:51.468Z,14.50
2019-05-23T22:05:21.937Z,16.42
2019-05-23T22:07:52.465Z,14.05
2019-05-23T22:10:22.738Z,16.55
2019-05-23T22:13:03.785Z,15.85
2019-05-23T22:15:37.935Z,18.35
2019-05-23T22:18:08.758Z,15.93
2019-05-23T22:20:38.951Z,14.87
2019-05-23T22:23:10.193Z,17.15
2019-05-23T22:25:40.931Z,18.85
2019-05-23T22:28:11.483Z,16.62
2019-05-23T22:30:41.870Z,14.93
2019-05-23T22:33:12.219Z,17.60
2019-05-23T22:35:42.483Z,17.85
2019-05-23T22:38:12.843Z,15.72
2019-05-23T22:40:43.060Z,14.20
2019-05-23T22:43:21.213Z,17.90
2019-05-23T22:45:48.215Z,17.07
2019-05-23T22:48:18.599Z,12.33
2019-05-23T22:50:48.996Z,21.80
2019-05-23T22:53:19.268Z,24.20
2019-05-23T22:55:52.678Z,20.62
2019-05-23T23:01:11.856Z,20.12
2019-05-23T23:03:43.990Z,19.62
2019-05-23T23:06:14.497Z,22.80
2019-05-23T23:08:46.279Z,18.17
2019-05-23T23:11:17.419Z,20.85
2019-05-23T23:13:47.704Z,24.43
2019-05-23T23:16:18.612Z,15.85
2019-05-23T23:18:48.908Z,21.12
2019-05-23T23:21:19.465Z,23.98
2019-05-23T23:23:49.831Z,23.65
2019-05-23T23:26:20.132Z,18.67
2019-05-23T23:28:50.414Z,15.68
2019-05-23T23:31:39.318Z,20.72
2019-05-23T23:34:09.736Z,18.50
2019-05-23T23:36:40.021Z,23.70
2019-05-23T23:39:13.235Z,16.67
2019-05-23T23:41:43.561Z,18.10
2019-05-23T23:44:14.629Z,19.27
2019-05-23T23:47:10.583Z,19.15
2019-05-23T23:49:58.880Z,21.52
2019-05-23T23:52:46.997Z,20.90
2019-05-23T23:55:35.564Z,20.02
2019-05-23T23:58:13.999Z,20.68
